Time;durP1;ratioP1;P1;durP2;ratioP2;P2;SDS_P1;SDS_P2;PMS_P1;PMS_P2;Temp;Humidity;BMP_temperature;BMP_pressure;BME280_temperature;BME280_humidity;BME280_pressure;Samples;Min_cycle;Max_cycle;Signal;HPM_P1;HPM_P2
2021/08/22 00:00:58;;;;;;;38.40;18.23;;;;;;;15.88;100.00;101051.38;5018720;28;20365;-72
2021/08/22 00:03:26;;;;;;;35.00;18.55;;;;;;;15.81;100.00;101048.59;5023124;28;20050;-71
2021/08/22 00:05:54;;;;;;;33.42;16.85;;;;;;;15.89;100.00;101042.28;5021793;28;20039;-71
2021/08/22 00:08:22;;;;;;;37.97;16.30;;;;;;;15.91;100.00;101040.22;5021890;28;20049;-71
2021/08/22 00:10:50;;;;;;;33.63;15.68;;;;;;;15.98;100.00;101045.66;5021145;28;20063;-72
2021/08/22 00:13:21;;;;;;;31.73;15.40;;;;;;;16.10;100.00;101043.28;5016403;28;20103;-73
2021/08/22 00:15:49;;;;;;;31.30;16.55;;;;;;;16.07;100.00;101044.50;5021709;28;20049;-71
2021/08/22 00:18:18;;;;;;;26.80;16.08;;;;;;;16.02;100.00;101028.09;5018360;28;20046;-71
2021/08/22 00:20:47;;;;;;;24.45;13.18;;;;;;;16.03;100.00;101024.34;5017633;28;20042;-71
2021/08/22 00:23:15;;;;;;;27.58;13.43;;;;;;;16.01;100.00;101023.72;5021787;28;20048;-72
2021/08/22 00:25:43;;;;;;;25.77;14.23;;;;;;;16.03;100.00;101012.75;5019057;28;20057;-71
2021/08/22 00:28:15;;;;;;;25.52;14.25;;;;;;;16.01;100.00;101012.97;5018057;28;20041;-72
2021/08/22 00:30:43;;;;;;;26.67;14.63;;;;;;;16.04;100.00;101009.03;5022056;28;20049;-72
2021/08/22 00:33:11;;;;;;;25.67;15.32;;;;;;;16.06;100.00;101002.44;5022415;28;20076;-72
2021/08/22 00:35:40;;;;;;;24.05;13.85;;;;;;;16.09;100.00;101004.75;5021038;28;20037;-72
2021/08/22 00:38:08;;;;;;;24.90;13.57;;;;;;;16.12;100.00;101001.66;5021332;28;20056;-73
2021/08/22 00:40:36;;;;;;;22.05;12.45;;;;;;;16.07;100.00;100998.69;5021671;28;20352;-72
2021/08/22 00:43:05;;;;;;;24.80;13.25;;;;;;;16.00;100.00;100998.66;5019097;28;20041;-73
2021/08/22 00:45:32;;;;;;;25.77;12.80;;;;;;;16.09;100.00;100988.59;5023149;28;20088;-73
2021/08/22 00:48:00;;;;;;;24.80;12.65;;;;;;;16.04;100.00;100993.72;5019488;28;20095;-73
2021/08/22 00:50:28;;;;;;;27.80;13.80;;;;;;;16.05;100.00;100991.84;5018194;28;20360;-73
2021/08/22 00:52:58;;;;;;;22.60;13.07;;;;;;;16.00;100.00;100992.44;5023606;28;20251;-73
2021/08/22 00:55:25;;;;;;;21.00;11.93;;;;;;;15.88;100.00;100985.91;5019313;28;20352;-72
2021/08/22 00:57:53;;;;;;;21.10;12.00;;;;;;;15.84;100.00;100983.59;5017646;28;20044;-72
2021/08/22 01:00:21;;;;;;;20.60;11.98;;;;;;;15.82;100.00;100972.19;5019936;28;20049;-71
2021/08/22 01:02:53;;;;;;;19.65;11.27;;;;;;;15.90;100.00;100978.47;5016767;28;20050;-71
2021/08/22 01:05:32;;;;;;;21.30;11.52;;;;;;;15.87;100.00;100976.19;5019476;28;20058;-74
2021/08/22 01:08:06;;;;;;;20.17;11.73;;;;;;;15.87;100.00;100978.88;5019718;28;20076;-72
2021/08/22 01:10:35;;;;;;;18.95;11.23;;;;;;;15.87;100.00;100970.78;5020053;28;20319;-72
2021/08/22 01:13:07;;;;;;;21.48;11.40;;;;;;;15.95;100.00;100970.66;5021460;28;20400;-72
2021/08/22 01:15:38;;;;;;;20.95;12.38;;;;;;;15.94;100.00;100975.19;5019608;28;20453;-72
2021/08/22 01:18:06;;;;;;;19.80;11.35;;;;;;;15.93;100.00;100975.38;5018050;28;20289;-72
2021/08/22 01:20:40;;;;;;;21.98;10.75;;;;;;;15.96;100.00;100972.28;5019366;28;20037;-72
2021/08/22 01:23:10;;;;;;;23.48;11.82;;;;;;;15.94;100.00;100980.56;5018348;28;20088;-72
2021/08/22 01:25:40;;;;;;;22.48;12.68;;;;;;;16.01;100.00;100975.25;5018875;28;20046;-71
2021/08/22 01:28:08;;;;;;;24.13;12.65;;;;;;;16.00;100.00;100973.56;5016583;28;20056;-72
2021/08/22 01:30:41;;;;;;;20.50;11.82;;;;;;;16.05;100.00;100971.13;5020290;28;20386;-72
2021/08/22 01:33:12;;;;;;;22.73;12.32;;;;;;;16.04;100.00;100964.09;5019698;28;20072;-72
2021/08/22 01:35:40;;;;;;;23.98;11.32;;;;;;;16.02;100.00;100966.16;5022304;28;20045;-73
2021/08/22 01:38:09;;;;;;;19.33;10.95;;;;;;;16.01;100.00;100968.00;5018639;28;20041;-73
2021/08/22 01:40:38;;;;;;;18.48;9.68;;;;;;;16.00;100.00;100963.66;5019795;28;20681;-72
2021/08/22 01:43:06;;;;;;;21.55;10.98;;;;;;;16.05;100.00;100963.06;5018404;28;20531;-71
2021/08/22 01:45:34;;;;;;;20.85;10.52;;;;;;;16.10;100.00;100960.59;5020947;28;20093;-72
2021/08/22 01:48:03;;;;;;;18.55;11.27;;;;;;;16.05;100.00;100960.38;5019013;28;20064;-72
2021/08/22 01:50:33;;;;;;;17.20;10.15;;;;;;;15.99;100.00;100958.44;5021779;28;20057;-72
2021/08/22 01:53:04;;;;;;;19.30;10.48;;;;;;;16.00;100.00;100958.28;5020211;28;20049;-73
2021/08/22 01:55:32;;;;;;;19.75;10.45;;;;;;;16.03;100.00;100957.03;5019881;28;20353;-72
2021/08/22 01:58:00;;;;;;;19.45;9.75;;;;;;;15.99;100.00;100956.59;5019081;28;20053;-72
2021/08/22 02:00:28;;;;;;;16.05;9.15;;;;;;;15.97;100.00;100953.25;5019727;28;20476;-72
2021/08/22 02:03:00;;;;;;;16.65;9.15;;;;;;;16.00;100.00;100952.88;5020984;28;20041;-72
2021/08/22 02:05:30;;;;;;;16.80;9.23;;;;;;;15.95;100.00;100947.25;5018584;28;20114;-72
2021/08/22 02:08:00;;;;;;;17.77;10.10;;;;;;;15.92;100.00;100949.47;5016506;28;20037;-73
2021/08/22 02:10:30;;;;;;;18.13;9.93;;;;;;;15.90;100.00;100954.22;5020297;28;20120;-72
2021/08/22 02:13:02;;;;;;;18.00;8.98;;;;;;;15.90;100.00;100949.66;5019520;28;20034;-72
2021/08/22 02:15:32;;;;;;;16.90;9.30;;;;;;;15.94;100.00;100950.94;5020001;28;20437;-72
2021/08/22 02:18:04;;;;;;;15.50;9.38;;;;;;;16.04;100.00;100952.47;5017228;28;20337;-72
2021/08/22 02:20:32;;;;;;;16.63;9.02;;;;;;;16.03;100.00;100953.50;5020181;28;20045;-72
2021/08/22 02:23:02;;;;;;;20.67;8.52;;;;;;;16.12;100.00;100950.47;5025778;28;20045;-75
2021/08/22 02:25:30;;;;;;;16.88;9.55;;;;;;;16.11;100.00;100953.38;5024418;28;20046;-74
2021/08/22 02:27:59;;;;;;;14.32;9.18;;;;;;;16.08;100.00;100943.81;5018722;28;20046;-72
2021/08/22 02:30:28;;;;;;;17.88;8.68;;;;;;;16.10;100.00;100941.72;5023222;28;20049;-72
2021/08/22 02:32:55;;;;;;;15.20;8.60;;;;;;;16.04;100.00;100936.31;5022815;28;20111;-73
2021/08/22 02:35:23;;;;;;;19.15;8.50;;;;;;;16.04;100.00;100947.91;5023062;28;20049;-74
2021/08/22 02:37:51;;;;;;;15.15;9.13;;;;;;;16.08;100.00;100948.38;5023128;28;20044;-75
2021/08/22 02:40:20;;;;;;;15.63;9.75;;;;;;;16.03;100.00;100946.25;5020835;28;20054;-71
2021/08/22 02:42:48;;;;;;;18.10;9.93;;;;;;;16.17;100.00;100948.03;5024265;28;20049;-74
2021/08/22 02:45:17;;;;;;;18.92;9.90;;;;;;;16.14;100.00;100943.00;5025077;28;20132;-77
2021/08/22 02:47:45;;;;;;;17.17;10.13;;;;;;;16.11;100.00;100940.72;5022781;28;20073;-76
2021/08/22 02:50:13;;;;;;;22.20;9.95;;;;;;;16.09;100.00;100945.47;5023824;28;20045;-75
2021/08/22 02:52:41;;;;;;;16.70;9.90;;;;;;;16.15;100.00;100939.28;5024280;28;20444;-75
2021/08/22 02:55:09;;;;;;;14.55;8.70;;;;;;;16.15;100.00;100933.91;5024545;28;20045;-74
2021/08/22 02:57:40;;;;;;;15.52;9.55;;;;;;;16.14;100.00;100940.31;5020600;28;20321;-75
2021/08/22 03:00:09;;;;;;;17.17;9.70;;;;;;;16.19;100.00;100942.44;5024673;28;20053;-74
2021/08/22 03:02:37;;;;;;;15.73;9.35;;;;;;;16.16;100.00;100935.56;5022382;28;20287;-73
2021/08/22 03:05:05;;;;;;;14.80;7.95;;;;;;;16.19;100.00;100937.06;5027515;28;20264;-73
2021/08/22 03:07:33;;;;;;;17.02;8.65;;;;;;;16.16;100.00;100930.19;5018463;28;20318;-73
2021/08/22 03:10:01;;;;;;;14.75;7.93;;;;;;;16.13;100.00;100941.38;5025075;28;20338;-73
2021/08/22 03:12:29;;;;;;;14.88;7.78;;;;;;;16.16;100.00;100937.41;5022868;28;20495;-73
2021/08/22 03:14:58;;;;;;;14.02;8.95;;;;;;;16.14;100.00;100936.81;5018454;28;20053;-73
2021/08/22 03:17:26;;;;;;;9.18;7.10;;;;;;;16.11;100.00;100935.31;5020557;28;20037;-76
2021/08/22 03:19:54;;;;;;;14.32;7.25;;;;;;;16.10;100.00;100936.34;5021055;28;20396;-70
2021/08/22 03:22:23;;;;;;;11.77;6.88;;;;;;;16.05;100.00;100930.75;5022479;28;20068;-71
2021/08/22 03:24:51;;;;;;;10.63;6.10;;;;;;;16.08;100.00;100935.72;5023979;28;20037;-71
2021/08/22 03:27:19;;;;;;;12.38;6.93;;;;;;;16.04;100.00;100930.94;5019880;28;20072;-71
2021/08/22 03:29:47;;;;;;;14.18;5.43;;;;;;;15.97;100.00;100933.56;5023041;28;20069;-72
2021/08/22 03:32:16;;;;;;;11.60;5.85;;;;;;;15.92;100.00;100938.69;5022330;28;20037;-72
2021/08/22 03:34:44;;;;;;;11.98;6.00;;;;;;;15.89;100.00;100931.88;5020649;28;20531;-71
2021/08/22 03:37:12;;;;;;;11.43;6.47;;;;;;;15.87;100.00;100930.41;5021759;28;20347;-73
2021/08/22 03:39:40;;;;;;;11.63;6.30;;;;;;;15.79;100.00;100929.50;5022062;28;20361;-75
2021/08/22 03:42:07;;;;;;;8.40;5.85;;;;;;;15.64;100.00;100924.16;5022375;28;20322;-75
2021/08/22 03:44:36;;;;;;;10.57;6.03;;;;;;;15.72;100.00;100922.38;5019923;28;20045;-75
2021/08/22 03:47:04;;;;;;;10.23;4.78;;;;;;;15.68;100.00;100927.31;5023553;28;20437;-73
2021/08/22 03:49:33;;;;;;;8.23;5.03;;;;;;;15.56;100.00;100929.69;5022861;28;20053;-70
2021/08/22 03:52:02;;;;;;;11.13;4.53;;;;;;;15.48;100.00;100933.34;5021234;28;20050;-68
2021/08/22 03:54:30;;;;;;;12.20;5.47;;;;;;;15.38;100.00;100932.84;5024119;28;20626;-69
2021/08/22 03:56:57;;;;;;;9.73;6.07;;;;;;;15.28;100.00;100932.31;5018162;28;20399;-71
2021/08/22 03:59:25;;;;;;;9.88;5.40;;;;;;;15.24;100.00;100939.09;5019908;28;20062;-69
2021/08/22 04:01:53;;;;;;;12.70;5.40;;;;;;;15.30;100.00;100930.28;5023335;28;20041;-68
2021/08/22 04:04:21;;;;;;;11.35;5.28;;;;;;;15.23;100.00;100929.38;5021364;28;20085;-68
2021/08/22 04:06:52;;;;;;;10.48;5.38;;;;;;;15.15;100.00;100933.84;5020415;28;20045;-67
2021/08/22 04:09:20;;;;;;;13.65;5.97;;;;;;;15.02;100.00;100939.06;5019238;28;20037;-68
2021/08/22 04:11:52;;;;;;;10.43;4.90;;;;;;;15.09;100.00;100928.41;5020548;28;20050;-68
2021/08/22 04:14:19;;;;;;;10.02;6.15;;;;;;;15.02;100.00;100930.19;5019765;28;20045;-68
2021/08/22 04:16:48;;;;;;;10.52;5.55;;;;;;;15.13;100.00;100935.06;5018088;28;20049;-68
2021/08/22 04:19:16;;;;;;;9.80;5.88;;;;;;;15.19;100.00;100946.91;5023132;28;20033;-73
2021/08/22 04:21:44;;;;;;;13.82;5.65;;;;;;;15.20;100.00;100940.53;5021110;28;20115;-73
2021/08/22 04:24:13;;;;;;;10.55;5.82;;;;;;;15.20;100.00;100935.97;5022066;28;20054;-74
2021/08/22 04:26:41;;;;;;;10.50;5.57;;;;;;;15.26;100.00;100942.44;5016481;28;20052;-73
2021/08/22 04:29:10;;;;;;;11.90;4.97;;;;;;;15.14;100.00;100942.13;5021002;28;20041;-73
2021/08/22 04:31:39;;;;;;;8.98;5.53;;;;;;;15.14;100.00;100951.00;5019914;28;20457;-74
2021/08/22 04:34:07;;;;;;;8.77;4.13;;;;;;;15.19;100.00;100949.63;5018709;28;20132;-74
2021/08/22 04:36:35;;;;;;;9.80;4.97;;;;;;;15.19;100.00;100945.06;5016757;28;20041;-74
2021/08/22 04:39:02;;;;;;;8.77;4.25;;;;;;;15.29;100.00;100940.19;5022173;28;20049;-74
2021/08/22 04:41:32;;;;;;;8.38;4.53;;;;;;;15.23;100.00;100948.22;5023271;28;20041;-73
2021/08/22 04:44:00;;;;;;;10.23;4.70;;;;;;;15.24;100.00;100950.69;5020274;28;20042;-74
2021/08/22 04:46:27;;;;;;;8.93;4.90;;;;;;;15.18;100.00;100954.13;5018875;28;20099;-74
2021/08/22 04:48:55;;;;;;;9.07;4.70;;;;;;;15.27;100.00;100949.50;5021490;28;20041;-74
2021/08/22 04:51:23;;;;;;;12.25;5.07;;;;;;;15.36;100.00;100953.72;5020032;28;20088;-74
2021/08/22 04:53:51;;;;;;;10.07;4.85;;;;;;;15.37;100.00;100947.31;5016103;28;20049;-75
2021/08/22 04:56:19;;;;;;;11.57;4.20;;;;;;;15.43;100.00;100949.22;5019310;28;20049;-74
2021/08/22 04:58:48;;;;;;;8.82;3.90;;;;;;;15.53;100.00;100953.47;5018064;28;20445;-73
2021/08/22 05:01:17;;;;;;;6.35;3.88;;;;;;;15.53;100.00;100956.16;5022897;28;20041;-75
2021/08/22 05:03:45;;;;;;;8.00;4.25;;;;;;;15.52;100.00;100941.84;5022145;28;20045;-74
2021/08/22 05:06:13;;;;;;;10.82;4.57;;;;;;;15.55;100.00;100944.19;5019837;28;20077;-74
2021/08/22 05:08:41;;;;;;;8.30;4.18;;;;;;;15.66;100.00;100945.50;5018327;28;20038;-73
2021/08/22 05:11:09;;;;;;;8.20;4.10;;;;;;;15.62;100.00;100945.06;5017805;28;20486;-70
2021/08/22 05:13:37;;;;;;;8.45;4.07;;;;;;;15.74;100.00;100947.25;5021614;28;20457;-70
2021/08/22 05:16:07;;;;;;;9.95;4.05;;;;;;;15.75;100.00;100941.66;5019431;28;20429;-71
2021/08/22 05:18:35;;;;;;;9.32;5.32;;;;;;;15.88;100.00;100932.03;5022015;28;20524;-72
2021/08/22 05:21:03;;;;;;;7.13;3.40;;;;;;;15.78;100.00;100933.19;5019053;28;20421;-72
2021/08/22 05:23:32;;;;;;;8.57;3.85;;;;;;;15.78;100.00;100932.38;5019085;28;20050;-70
2021/08/22 05:26:00;;;;;;;9.93;3.30;;;;;;;15.70;100.00;100930.63;5018273;28;20053;-71
2021/08/22 05:28:28;;;;;;;10.25;3.53;;;;;;;15.74;100.00;100936.47;5016357;28;20262;-71
2021/08/22 05:30:58;;;;;;;8.88;3.80;;;;;;;15.63;100.00;100943.22;5019797;28;20493;-70
2021/08/22 05:33:27;;;;;;;8.18;3.75;;;;;;;15.75;100.00;100938.97;5018701;28;20077;-71
2021/08/22 05:35:55;;;;;;;7.47;3.58;;;;;;;15.70;100.00;100946.78;5017481;28;20257;-69
2021/08/22 05:38:23;;;;;;;7.07;3.75;;;;;;;15.80;100.00;100946.50;5016654;28;20046;-69
2021/08/22 05:40:51;;;;;;;10.73;3.53;;;;;;;15.73;100.00;100937.50;5016441;28;20065;-69
2021/08/22 05:43:19;;;;;;;7.03;3.80;;;;;;;15.72;100.00;100944.75;5016636;28;20041;-71
2021/08/22 05:45:47;;;;;;;11.95;4.45;;;;;;;15.67;100.00;100945.31;5021110;28;20087;-69
2021/08/22 05:48:15;;;;;;;10.52;4.72;;;;;;;15.82;100.00;100939.88;5020079;28;20100;-70
2021/08/22 05:50:44;;;;;;;11.23;4.13;;;;;;;15.91;100.00;100939.75;5021932;28;20106;-69
2021/08/22 05:53:12;;;;;;;6.68;3.60;;;;;;;15.86;100.00;100939.50;5017164;28;20282;-69
2021/08/22 05:55:40;;;;;;;12.25;4.72;;;;;;;16.02;100.00;100947.28;5017672;28;20072;-70
2021/08/22 05:58:08;;;;;;;7.50;3.67;;;;;;;15.91;100.00;100947.84;5020858;28;20045;-70
2021/08/22 06:00:37;;;;;;;7.70;4.05;;;;;;;15.95;100.00;100949.94;5023900;28;20421;-69
2021/08/22 06:03:05;;;;;;;11.27;3.70;;;;;;;16.09;100.00;100958.09;5019439;28;20034;-68
2021/08/22 06:05:33;;;;;;;8.20;3.35;;;;;;;16.16;100.00;100957.13;5023235;28;20061;-70
2021/08/22 06:08:02;;;;;;;7.93;3.72;;;;;;;16.09;100.00;100956.25;5020124;28;20728;-68
2021/08/22 06:10:30;;;;;;;9.82;3.97;;;;;;;16.08;100.00;100964.53;5020284;28;20451;-69
2021/08/22 06:12:58;;;;;;;9.27;3.83;;;;;;;16.01;100.00;100961.78;5022247;28;20046;-69
2021/08/22 06:15:26;;;;;;;12.15;3.88;;;;;;;16.16;100.00;100969.75;5022999;28;20099;-69
2021/08/22 06:17:54;;;;;;;7.75;4.30;;;;;;;15.96;100.00;100973.16;5019498;28;20034;-69
2021/08/22 06:20:23;;;;;;;11.65;4.28;;;;;;;16.11;100.00;100967.66;5020706;28;20030;-69
2021/08/22 06:22:51;;;;;;;11.02;4.05;;;;;;;16.10;100.00;100965.97;5022733;28;20103;-69
2021/08/22 06:25:21;;;;;;;10.38;5.03;;;;;;;16.15;100.00;100973.50;5020501;28;20045;-71
2021/08/22 06:27:49;;;;;;;9.75;4.60;;;;;;;16.38;100.00;100965.13;5020739;28;20202;-69
2021/08/22 06:30:18;;;;;;;7.05;3.58;;;;;;;16.41;100.00;100963.91;5019712;28;20041;-69
2021/08/22 06:32:45;;;;;;;7.90;4.35;;;;;;;16.43;100.00;100962.69;5022369;28;20033;-69
2021/08/22 06:35:13;;;;;;;9.23;4.07;;;;;;;16.57;100.00;100969.00;5021624;28;20053;-69
2021/08/22 06:37:42;;;;;;;8.85;4.07;;;;;;;16.27;100.00;100961.13;5021568;28;20049;-69
2021/08/22 06:40:11;;;;;;;12.05;4.45;;;;;;;16.13;100.00;100967.44;5022347;28;20038;-70
2021/08/22 06:42:40;;;;;;;9.27;4.45;;;;;;;15.97;100.00;100966.72;5023058;28;20053;-70
2021/08/22 06:45:09;;;;;;;10.20;4.07;;;;;;;15.97;100.00;100973.97;5024322;28;20042;-69
2021/08/22 06:47:37;;;;;;;14.25;4.45;;;;;;;15.81;100.00;100973.22;5020976;28;20765;-69
2021/08/22 06:50:05;;;;;;;7.05;5.07;;;;;;;16.00;100.00;100974.44;5023869;28;20589;-69
2021/08/22 06:52:33;;;;;;;10.68;4.75;;;;;;;16.10;100.00;100974.06;5018131;28;20103;-69
2021/08/22 06:55:01;;;;;;;6.80;3.80;;;;;;;16.28;100.00;100961.97;5026084;28;20053;-70
2021/08/22 06:57:29;;;;;;;12.02;3.65;;;;;;;16.20;100.00;100967.50;5018582;28;20042;-70
2021/08/22 06:59:58;;;;;;;8.02;4.45;;;;;;;16.18;100.00;100971.22;5020175;28;20045;-69
2021/08/22 07:02:26;;;;;;;10.98;5.38;;;;;;;16.38;100.00;100967.84;5026717;28;20120;-70
2021/08/22 07:04:54;;;;;;;8.65;4.93;;;;;;;16.50;100.00;100973.50;5022904;28;20069;-69
2021/08/22 07:07:22;;;;;;;7.82;4.45;;;;;;;16.62;100.00;100968.41;5022262;28;20053;-69
2021/08/22 07:09:51;;;;;;;9.32;4.75;;;;;;;16.63;100.00;100965.50;5023441;28;20046;-69
2021/08/22 07:12:19;;;;;;;14.13;4.68;;;;;;;16.65;100.00;100973.38;5022168;28;20395;-67
2021/08/22 07:14:47;;;;;;;15.10;7.45;;;;;;;16.50;100.00;100973.50;5019146;28;20430;-68
2021/08/22 07:17:20;;;;;;;12.65;5.20;;;;;;;16.13;100.00;100979.09;5021302;28;20296;-68
2021/08/22 07:19:48;;;;;;;10.60;5.25;;;;;;;16.19;100.00;100985.56;5025477;28;20088;-68
2021/08/22 07:22:16;;;;;;;8.88;5.45;;;;;;;15.88;100.00;100988.59;5024125;28;20042;-68
2021/08/22 07:24:43;;;;;;;11.52;5.60;;;;;;;15.69;100.00;100993.56;5022122;28;20100;-68
2021/08/22 07:27:11;;;;;;;10.80;5.60;;;;;;;15.81;100.00;100989.38;5022053;28;20437;-68
2021/08/22 07:29:39;;;;;;;7.80;5.28;;;;;;;15.96;100.00;100993.84;5022782;28;20033;-70
2021/08/22 07:32:08;;;;;;;13.45;5.97;;;;;;;15.97;100.00;100992.81;5026447;28;20430;-68
2021/08/22 07:34:37;;;;;;;12.05;5.97;;;;;;;16.07;100.00;100996.00;5024074;28;20053;-68
2021/08/22 07:37:05;;;;;;;11.27;5.03;;;;;;;16.09;100.00;100988.59;5022558;28;20433;-69
2021/08/22 07:39:33;;;;;;;8.93;5.43;;;;;;;16.20;100.00;100994.44;5022020;28;20091;-69
2021/08/22 07:42:01;;;;;;;8.00;4.45;;;;;;;16.02;100.00;100987.69;5022997;28;20116;-71
2021/08/22 07:44:29;;;;;;;8.85;4.32;;;;;;;16.31;100.00;100983.13;5017474;28;20041;-69
2021/08/22 07:46:57;;;;;;;10.20;5.00;;;;;;;16.09;100.00;100990.41;5018231;28;20042;-69
2021/08/22 07:49:25;;;;;;;9.35;4.78;;;;;;;16.06;100.00;100988.97;5019882;28;20234;-70
2021/08/22 07:51:55;;;;;;;5.47;3.97;;;;;;;16.31;100.00;100996.59;5017514;28;20063;-71
2021/08/22 07:54:23;;;;;;;5.60;3.97;;;;;;;16.01;100.00;100991.41;5020050;28;20049;-71
2021/08/22 07:56:51;;;;;;;6.55;4.32;;;;;;;16.11;100.00;101004.53;5017373;28;20518;-69
2021/08/22 07:59:19;;;;;;;6.43;3.70;;;;;;;16.17;100.00;101001.06;5018569;28;20088;-68
2021/08/22 08:01:47;;;;;;;9.57;4.47;;;;;;;16.18;100.00;100998.16;5022827;28;20045;-69
2021/08/22 08:04:15;;;;;;;7.38;4.22;;;;;;;16.09;100.00;101003.88;5024677;28;20072;-68
2021/08/22 08:06:43;;;;;;;7.55;3.78;;;;;;;16.15;100.00;100995.03;5017720;28;20354;-70
2021/08/22 08:09:12;;;;;;;7.40;3.67;;;;;;;16.20;100.00;100999.84;5020637;28;20052;-70
2021/08/22 08:11:40;;;;;;;12.90;3.90;;;;;;;16.21;100.00;100994.25;5019918;28;20108;-71
2021/08/22 08:14:08;;;;;;;7.22;3.55;;;;;;;16.11;100.00;100993.78;5020077;28;20331;-70
2021/08/22 08:16:36;;;;;;;9.75;4.03;;;;;;;16.07;100.00;101001.41;5021702;28;20052;-71
2021/08/22 08:19:04;;;;;;;6.45;3.97;;;;;;;16.09;100.00;101002.06;5020483;28;20096;-70
2021/08/22 08:21:32;;;;;;;7.10;3.50;;;;;;;16.08;100.00;101011.16;5021845;28;20038;-65
2021/08/22 08:24:00;;;;;;;12.20;4.68;;;;;;;15.77;100.00;101023.06;5020088;28;20323;-74
2021/08/22 08:26:29;;;;;;;7.03;3.78;;;;;;;15.70;100.00;101013.28;5019506;28;20045;-74
2021/08/22 08:28:57;;;;;;;10.10;3.90;;;;;;;15.87;100.00;101024.66;5021046;28;20057;-74
2021/08/22 08:31:25;;;;;;;7.88;3.65;;;;;;;15.89;100.00;101026.13;5021954;28;20057;-73
2021/08/22 08:33:53;;;;;;;8.88;4.00;;;;;;;15.84;100.00;101032.06;5021334;28;20053;-74
2021/08/22 08:36:21;;;;;;;9.07;4.40;;;;;;;15.60;100.00;101032.41;5021503;28;20053;-73
2021/08/22 08:38:49;;;;;;;8.23;4.60;;;;;;;15.77;100.00;101033.00;5022664;28;20033;-73
2021/08/22 08:41:16;;;;;;;10.38;3.78;;;;;;;15.81;100.00;101037.84;5020940;28;20045;-74
2021/08/22 08:43:47;;;;;;;9.57;4.00;;;;;;;15.86;100.00;101031.03;5020500;28;20038;-73
2021/08/22 08:46:16;;;;;;;9.60;3.90;;;;;;;16.22;100.00;101040.88;5019077;28;20050;-71
2021/08/22 08:48:46;;;;;;;6.45;3.85;;;;;;;16.56;100.00;101031.16;5022696;28;20132;-72
2021/08/22 08:51:17;;;;;;;7.95;3.30;;;;;;;16.59;100.00;101017.31;5022107;28;20075;-71
2021/08/22 08:53:46;;;;;;;5.40;3.58;;;;;;;16.92;100.00;101014.00;5021639;28;20034;-72
2021/08/22 08:56:14;;;;;;;6.25;3.40;;;;;;;16.95;100.00;101005.50;5023337;28;20046;-72
2021/08/22 08:58:42;;;;;;;5.80;3.08;;;;;;;17.15;100.00;101001.03;5022889;28;20048;-72
2021/08/22 09:01:11;;;;;;;4.43;2.95;;;;;;;17.92;100.00;100991.84;5022472;28;20072;-71
2021/08/22 09:03:44;;;;;;;6.35;3.08;;;;;;;17.19;100.00;100972.56;5021546;28;20049;-70
2021/08/22 09:07:05;;;;;;;5.85;3.10;;;;;;;17.28;100.00;100969.69;5023816;28;20049;-72
2021/08/22 09:10:10;;;;;;;6.13;2.90;;;;;;;17.38;100.00;100984.47;5020254;28;20131;-72
2021/08/22 09:13:18;;;;;;;3.70;2.65;;;;;;;17.20;100.00;100992.31;5023280;28;20078;-72
2021/08/22 09:16:36;;;;;;;7.55;2.85;;;;;;;17.03;100.00;101008.03;5022922;28;20050;-72
2021/08/22 09:19:52;;;;;;;4.80;2.90;;;;;;;17.00;100.00;101005.75;4963160;28;20064;-72
2021/08/22 09:22:53;;;;;;;5.18;3.03;;;;;;;16.97;100.00;100998.88;5020759;28;20053;-73
2021/08/22 09:26:00;;;;;;;7.18;2.97;;;;;;;17.21;100.00;100997.50;5021636;28;20198;-74
2021/08/22 09:29:00;;;;;;;;;;;;;;;17.24;100.00;100998.97;5018759;28;20073;-73
2021/08/22 09:32:05;;;;;;;7.53;3.47;;;;;;;17.63;100.00;100999.25;5025302;28;20244;-73
2021/08/22 09:35:14;;;;;;;4.43;2.90;;;;;;;17.82;100.00;100984.97;5022989;28;20046;-74
2021/08/22 09:38:20;;;;;;;6.13;2.47;;;;;;;18.01;100.00;100977.09;5012852;28;20058;-71
2021/08/22 09:41:25;;;;;;;5.95;2.50;;;;;;;18.01;100.00;100979.78;5023434;28;20048;-74
2021/08/22 09:47:40;;;;;;;3.28;2.30;;;;;;;19.55;100.00;100963.84;5107971;27;20719;-72
2021/08/22 09:51:04;;;;;;;4.35;1.83;;;;;;;20.02;100.00;100960.81;5057201;28;20079;-73
2021/08/22 09:54:10;;;;;;;2.75;1.90;;;;;;;18.04;100.00;100965.84;5100485;28;20435;-73
2021/08/22 09:57:15;;;;;;;2.42;1.65;;;;;;;18.46;100.00;100971.81;5094469;28;20367;-75
2021/08/22 10:00:23;;;;;;;2.15;1.73;;;;;;;18.06;100.00;100980.00;5097742;28;20531;-76
2021/08/22 10:03:38;;;;;;;4.72;2.13;;;;;;;17.78;100.00;100996.38;5101816;28;20105;-73
2021/08/22 10:06:27;;;;;;;2.25;1.63;;;;;;;18.05;100.00;101003.47;5056282;28;20403;-70
2021/08/22 10:08:58;;;;;;;5.25;2.40;;;;;;;18.59;100.00;100998.00;5096527;28;20417;-70
2021/08/22 10:11:29;;;;;;;3.28;1.77;;;;;;;18.58;100.00;100999.88;5097830;28;20058;-70
2021/08/22 10:13:57;;;;;;;3.80;2.03;;;;;;;18.48;100.00;101012.16;5100120;28;20051;-69
2021/08/22 10:16:37;;;;;;;3.50;1.77;;;;;;;17.96;100.00;101028.19;5096586;28;20235;-70
2021/08/22 10:19:05;;;;;;;4.55;2.42;;;;;;;17.97;100.00;101037.97;5101694;28;20038;-70
2021/08/22 10:21:34;;;;;;;3.80;1.88;;;;;;;17.47;100.00;101039.09;5099805;28;20044;-71
2021/08/22 10:24:05;;;;;;;3.05;1.92;;;;;;;18.06;100.00;101034.88;5095458;28;20105;-70
2021/08/22 10:26:53;;;;;;;2.78;1.55;;;;;;;18.21;100.00;101028.41;5097232;28;20048;-70
2021/08/22 10:29:26;;;;;;;2.97;1.80;;;;;;;18.32;100.00;101022.38;5098227;28;20356;-70
2021/08/22 10:32:14;;;;;;;3.55;2.10;;;;;;;18.80;100.00;101018.53;5097722;28;20040;-70
2021/08/22 10:34:44;;;;;;;3.28;1.90;;;;;;;19.25;100.00;101012.34;5099253;28;20105;-70
2021/08/22 10:37:29;;;;;;;2.13;1.70;;;;;;;19.03;100.00;101019.97;5096396;28;20239;-69
2021/08/22 10:39:59;;;;;;;2.83;2.23;;;;;;;18.44;100.00;101019.88;5098309;28;20047;-69
2021/08/22 10:42:30;;;;;;;3.83;1.80;;;;;;;18.04;100.00;101023.41;5096060;28;20044;-69
2021/08/22 10:44:58;;;;;;;2.15;1.55;;;;;;;17.63;100.00;101028.97;5097593;28;20482;-71
2021/08/22 10:47:44;;;;;;;5.65;1.60;;;;;;;17.72;100.00;101025.06;5098771;28;20054;-71
2021/08/22 10:50:14;;;;;;;4.72;1.95;;;;;;;17.49;100.00;101031.66;5095443;28;20075;-70
2021/08/22 10:52:41;;;;;;;8.15;2.10;;;;;;;17.48;100.00;101040.78;5097932;28;20042;-69
2021/08/22 10:55:30;;;;;;;3.97;2.55;;;;;;;17.50;100.00;101048.66;5097690;28;20097;-68
2021/08/22 10:57:58;;;;;;;4.07;2.70;;;;;;;18.10;100.00;101046.06;5082213;28;20062;-70
2021/08/22 11:00:27;;;;;;;3.50;2.47;;;;;;;18.75;100.00;101040.84;5086778;28;20043;-69
2021/08/22 11:02:57;;;;;;;5.03;2.50;;;;;;;18.62;100.00;101040.03;5083560;28;20051;-69
2021/08/22 11:05:27;;;;;;;3.78;2.50;;;;;;;19.21;100.00;101036.31;5084425;28;20045;-69
2021/08/22 11:07:56;;;;;;;4.30;2.70;;;;;;;19.10;100.00;101037.00;5079402;28;20052;-69
2021/08/22 11:10:27;;;;;;;5.43;3.45;;;;;;;19.24;100.00;101040.47;5083064;28;20052;-69
2021/08/22 11:12:55;;;;;;;5.43;2.97;;;;;;;19.26;100.00;101033.81;5083333;28;20523;-71
2021/08/22 11:15:25;;;;;;;4.95;2.72;;;;;;;19.51;100.00;101027.63;5080922;28;20086;-69
2021/08/22 11:17:54;;;;;;;6.43;3.78;;;;;;;18.34;100.00;101043.78;5079914;28;20039;-69
2021/08/22 11:20:27;;;;;;;4.85;3.80;;;;;;;18.39;100.00;101046.72;5081811;28;20055;-69
2021/08/22 11:23:05;;;;;;;5.55;4.00;;;;;;;18.04;100.00;101050.44;5078831;28;20276;-70
2021/08/22 11:25:33;;;;;;;6.93;3.83;;;;;;;18.11;100.00;101044.22;5079857;28;20094;-69
2021/08/22 11:28:06;;;;;;;9.40;4.75;;;;;;;17.79;100.00;101069.09;5079479;28;20344;-69
2021/08/22 11:30:34;;;;;;;6.55;3.95;;;;;;;17.85;100.00;101057.47;5079252;28;20040;-69
2021/08/22 11:33:02;;;;;;;7.25;5.05;;;;;;;18.04;100.00;101060.44;5086103;28;20052;-68
2021/08/22 11:35:32;;;;;;;5.88;3.58;;;;;;;18.21;100.00;101053.56;5082275;28;20090;-69